Etusivu
METAR-TAF:

METAR-TAF

Lentoasemat :

Burlington Municipal Airport

Burlington, Wisconsin, Yhdysvallat

Leveyspiiri: 42-41-26N, Pituuspiiri: 088-18-17W, korkeus merenpinnasta: 237 m

Tämänhetkinen sää

Tämä raportti tehtiin 22 minuuttia sitten, kello 07.55 UTC
Tuuli 3 kn lännestä/lounaasta
Lämpötila 19°C
Kosteus 83%
Ilmanpaine 1015 hPa
Näkyvyys: 16.1 km
selkeää

METAR: KBUU 260755Z AUTO 24003KT 10SM CLR 19/16 A2996 RMK AO2 T01860160

Aika: 03:17 (08:17 UTC)


TAF: puuttuu

Säähavainnot ja -ennusteet yli 4000 lentoasemalta (METAR- ja TAF-raportit).

Käytössä olevat sääasemat on merkitty karttaan keltaisilla ja punaisilla pisteillä.

Aseta hiiri pisteen päälle nähdäksesi sääaseman nimen.

Klikkaa sitten nähdäksesi säähavainnot ja -ennusteet.

Kartan vaihtaminen: klikkaa mustalla rastilla varustettuja vihreitä pisteitä, niin voit zoomata sisään; viivalla varustettua vihreää pistettä, niin voit zoomata ulos tai vihreitä nuolia, niin pääset viereisille kartoille.


METAR-TAF: